createdAt,value
2023-02-03T00:00:09.161Z,5.63
2023-02-03T00:05:35.828Z,5.27
2023-02-03T00:10:59.486Z,4.33
2023-02-03T00:16:21.956Z,5.93
2023-02-03T00:21:44.780Z,4.73
2023-02-03T00:27:07.310Z,9.13
2023-02-03T00:32:30.349Z,7.27
2023-02-03T00:37:54.529Z,6.27
2023-02-03T00:43:16.678Z,8.23
2023-02-03T00:48:39.061Z,5.77
2023-02-03T00:54:01.570Z,6.63
2023-02-03T00:59:25.185Z,11.33
2023-02-03T01:04:47.419Z,20.80
2023-02-03T01:10:10.211Z,10.67
2023-02-03T01:15:32.771Z,7.90
2023-02-03T01:20:55.379Z,10.63
2023-02-03T01:26:21.948Z,8.63
2023-02-03T01:31:44.596Z,7.27
2023-02-03T01:37:07.186Z,8.77
2023-02-03T01:42:33.833Z,5.80
2023-02-03T01:47:59.472Z,9.93
2023-02-03T01:53:21.805Z,11.57
2023-02-03T01:58:46.346Z,13.53
2023-02-03T02:04:09.134Z,10.93
2023-02-03T02:09:32.034Z,11.87
2023-02-03T02:14:55.017Z,16.17
2023-02-03T02:20:38.681Z,10.50
2023-02-03T02:26:19.175Z,13.53
2023-02-03T02:31:49.209Z,10.33
2023-02-03T02:37:42.153Z,9.60
2023-02-03T02:43:08.738Z,8.63
2023-02-03T02:48:48.193Z,8.17
2023-02-03T02:54:17.291Z,6.93
2023-02-03T02:59:39.735Z,4.23
2023-02-03T03:05:08.856Z,4.03
2023-02-03T03:10:37.986Z,4.33
2023-02-03T03:16:07.655Z,3.60
2023-02-03T03:21:44.069Z,4.03
2023-02-03T03:27:16.753Z,7.33
2023-02-03T03:32:40.142Z,4.17
2023-02-03T03:38:16.700Z,7.03
2023-02-03T03:43:43.514Z,4.67
2023-02-03T03:49:10.645Z,2.83
2023-02-03T03:54:35.060Z,3.57
2023-02-03T04:00:00.203Z,3.50
2023-02-03T04:05:23.328Z,2.97
2023-02-03T04:10:45.637Z,3.33
2023-02-03T04:16:08.838Z,3.27
2023-02-03T04:21:31.059Z,4.07
2023-02-03T04:26:53.318Z,3.73
2023-02-03T04:32:15.983Z,3.60
2023-02-03T04:37:38.157Z,2.77
2023-02-03T04:43:06.763Z,2.90
2023-02-03T04:48:28.990Z,2.87
2023-02-03T04:53:51.195Z,4.23
2023-02-03T04:59:13.389Z,2.50
2023-02-03T05:04:35.935Z,2.93
2023-02-03T05:09:58.239Z,3.97
2023-02-03T05:15:20.272Z,3.50
2023-02-03T05:20:42.711Z,4.77
2023-02-03T05:26:05.226Z,6.43
2023-02-03T05:31:27.443Z,7.00
2023-02-03T05:36:49.790Z,8.00
2023-02-03T05:42:12.134Z,9.30
2023-02-03T05:47:34.387Z,8.50
2023-02-03T05:52:56.806Z,12.53
2023-02-03T05:58:18.933Z,13.57
2023-02-03T06:03:41.807Z,16.20
2023-02-03T06:09:07.400Z,16.13
2023-02-03T06:14:29.771Z,19.17
2023-02-03T06:19:52.001Z,17.67
2023-02-03T06:25:14.472Z,23.87
2023-02-03T06:30:37.184Z,25.00
2023-02-03T06:36:00.123Z,28.57
2023-02-03T06:41:27.516Z,24.43
2023-02-03T06:46:50.848Z,25.80
2023-02-03T06:52:13.147Z,28.23
2023-02-03T06:57:35.433Z,31.23
2023-02-03T07:02:59.603Z,31.13
2023-02-03T07:08:21.865Z,29.03
2023-02-03T07:13:43.966Z,28.93
2023-02-03T07:19:06.373Z,28.67
2023-02-03T07:24:28.718Z,31.70
2023-02-03T07:29:51.005Z,28.63
2023-02-03T07:35:13.383Z,23.90
2023-02-03T07:40:35.992Z,24.10
2023-02-03T07:45:58.344Z,22.70
2023-02-03T07:51:20.676Z,27.30
2023-02-03T07:56:43.613Z,24.17
2023-02-03T08:02:06.187Z,21.70
2023-02-03T08:07:28.455Z,20.40
2023-02-03T08:12:53.915Z,18.27
2023-02-03T08:18:16.192Z,21.23
2023-02-03T08:23:38.625Z,16.90
2023-02-03T08:29:00.729Z,13.77
2023-02-03T08:34:23.580Z,18.93
2023-02-03T08:39:46.429Z,16.30
2023-02-03T08:45:09.050Z,16.60
2023-02-03T08:50:31.937Z,13.63
2023-02-03T08:55:54.944Z,10.63
2023-02-03T09:01:17.482Z,10.00
2023-02-03T09:06:40.259Z,7.63
2023-02-03T09:12:02.693Z,9.73
2023-02-03T09:17:24.944Z,7.87
2023-02-03T09:22:47.334Z,7.83
2023-02-03T09:28:09.872Z,5.63
2023-02-03T09:33:32.607Z,4.60
2023-02-03T09:38:54.839Z,5.10
2023-02-03T09:44:30.555Z,7.57
2023-02-03T09:50:02.960Z,7.67
2023-02-03T09:55:39.754Z,5.30
2023-02-03T10:01:13.342Z,5.37
2023-02-03T10:06:45.195Z,5.53
2023-02-03T10:12:07.327Z,6.27
2023-02-03T10:17:35.481Z,3.43
2023-02-03T10:23:03.080Z,8.50
2023-02-03T10:28:32.855Z,3.90
2023-02-03T10:34:09.649Z,5.07
2023-02-03T10:39:52.638Z,5.30
2023-02-03T10:45:15.361Z,3.27
2023-02-03T10:50:42.326Z,3.10
2023-02-03T10:56:12.972Z,2.50
2023-02-03T11:01:47.999Z,4.00
2023-02-03T11:07:24.668Z,9.47
2023-02-03T11:12:46.971Z,9.57
2023-02-03T11:18:46.060Z,3.93
2023-02-03T11:24:20.180Z,8.53
2023-02-03T11:29:46.343Z,11.60
2023-02-03T11:35:24.203Z,6.43
2023-02-03T11:40:48.599Z,11.33
2023-02-03T11:46:11.793Z,3.97
2023-02-03T11:51:50.799Z,11.00
2023-02-03T11:57:41.472Z,11.67
2023-02-03T12:03:56.389Z,9.87
2023-02-03T12:09:24.427Z,7.13
2023-02-03T12:15:05.722Z,11.00
2023-02-03T12:21:05.819Z,12.50
2023-02-03T12:26:50.811Z,11.60
2023-02-03T12:32:29.011Z,16.97
2023-02-03T12:38:14.647Z,22.07
2023-02-03T12:43:42.194Z,17.43
2023-02-03T12:49:37.025Z,24.20
2023-02-03T12:55:18.841Z,12.83
2023-02-03T13:00:54.773Z,4.10
2023-02-03T13:06:26.385Z,3.90
2023-02-03T13:12:11.372Z,3.90
2023-02-03T13:17:40.188Z,10.77
2023-02-03T13:23:08.483Z,13.93
2023-02-03T13:29:07.728Z,10.40
2023-02-03T13:34:57.868Z,13.00
2023-02-03T13:40:40.670Z,12.00
2023-02-03T13:46:04.273Z,7.53
2023-02-03T13:51:36.214Z,12.03
2023-02-03T13:57:20.331Z,13.07
2023-02-03T14:02:45.371Z,10.63
2023-02-03T14:08:26.334Z,14.60
2023-02-03T14:13:49.096Z,19.80
2023-02-03T14:19:29.758Z,18.73
2023-02-03T14:24:54.806Z,10.60
2023-02-03T14:30:17.578Z,29.63
2023-02-03T14:35:42.483Z,11.03
2023-02-03T14:41:06.071Z,16.70
2023-02-03T14:46:58.463Z,25.57
2023-02-03T14:52:29.946Z,14.37
2023-02-03T14:58:01.562Z,37.93
2023-02-03T15:03:25.895Z,28.43
2023-02-03T15:08:49.053Z,21.07
2023-02-03T15:14:21.991Z,27.40
2023-02-03T15:19:44.521Z,24.03
2023-02-03T15:25:18.244Z,18.00
2023-02-03T15:30:41.182Z,19.87
2023-02-03T15:36:20.191Z,22.57
2023-02-03T15:41:43.102Z,13.23
2023-02-03T15:47:19.875Z,20.33
2023-02-03T15:52:44.646Z,30.40
2023-02-03T15:58:12.151Z,19.77
2023-02-03T16:03:49.390Z,15.47
2023-02-03T16:09:33.565Z,17.27
2023-02-03T16:14:57.527Z,13.20
2023-02-03T16:20:24.188Z,9.53
2023-02-03T16:26:07.161Z,17.37
2023-02-03T16:31:48.585Z,9.53
2023-02-03T16:37:42.385Z,18.00
2023-02-03T16:43:23.592Z,14.10
2023-02-03T16:49:05.245Z,14.47
2023-02-03T16:54:28.249Z,19.30
2023-02-03T16:59:50.649Z,15.30
2023-02-03T17:05:13.145Z,20.00
2023-02-03T17:10:37.369Z,18.97
2023-02-03T17:16:00.034Z,13.10
2023-02-03T17:21:26.397Z,24.13
2023-02-03T17:26:49.190Z,23.43
2023-02-03T17:32:15.222Z,17.77
2023-02-03T17:37:37.911Z,21.27
2023-02-03T17:54:19.998Z,20.03
2023-02-03T17:59:42.186Z,21.73
2023-02-03T18:05:05.078Z,11.97
2023-02-03T18:10:27.855Z,18.03
2023-02-03T18:15:50.267Z,16.93
2023-02-03T18:21:15.344Z,19.03
2023-02-03T18:26:47.207Z,15.20
2023-02-03T18:32:09.535Z,16.23
2023-02-03T18:37:32.599Z,9.33
2023-02-03T18:42:58.222Z,14.80
2023-02-03T18:48:20.276Z,23.27
2023-02-03T18:53:44.895Z,9.83
2023-02-03T18:59:10.080Z,11.40
2023-02-03T19:04:33.342Z,17.03
2023-02-03T19:09:56.129Z,6.50
2023-02-03T19:15:19.556Z,14.63
2023-02-03T19:20:45.075Z,11.67
2023-02-03T19:26:07.890Z,11.70
2023-02-03T19:31:30.497Z,14.83
2023-02-03T19:36:52.798Z,11.10
2023-02-03T19:42:15.168Z,11.60
2023-02-03T19:47:37.450Z,17.23
2023-02-03T19:52:59.940Z,9.17
2023-02-03T19:58:23.540Z,14.57
2023-02-03T20:03:48.126Z,14.43
2023-02-03T20:09:10.907Z,10.43
2023-02-03T20:14:33.919Z,14.50
2023-02-03T20:19:56.542Z,4.33
2023-02-03T20:25:19.318Z,6.70
2023-02-03T20:30:43.823Z,7.60
2023-02-03T20:36:06.610Z,10.27
2023-02-03T20:41:29.302Z,4.97
2023-02-03T20:46:55.936Z,6.90
2023-02-03T20:52:21.031Z,9.40
2023-02-03T20:57:43.810Z,6.60
2023-02-03T21:03:25.124Z,7.57
2023-02-03T21:08:48.558Z,5.23
2023-02-03T21:14:20.335Z,0.83
2023-02-03T21:19:42.818Z,1.90
2023-02-03T21:25:07.112Z,2.20
2023-02-03T21:30:34.865Z,2.17
2023-02-03T21:35:57.290Z,1.00
2023-02-03T21:41:22.171Z,0.60
2023-02-03T21:46:44.350Z,0.60
2023-02-03T21:52:12.775Z,0.63
2023-02-03T21:57:35.055Z,1.70
2023-02-03T22:03:01.435Z,1.03
2023-02-03T22:08:24.059Z,0.80
2023-02-03T22:13:47.774Z,2.10
2023-02-03T22:19:10.566Z,1.07
2023-02-03T22:24:33.151Z,2.10
2023-02-03T22:29:56.525Z,0.90
2023-02-03T22:35:18.856Z,0.97
2023-02-03T22:40:41.302Z,1.50
2023-02-03T22:46:06.134Z,1.43
2023-02-03T22:51:28.437Z,1.50
2023-02-03T22:56:50.760Z,1.53
2023-02-03T23:02:13.167Z,2.03
2023-02-03T23:07:37.290Z,1.53
2023-02-03T23:13:03.166Z,4.67
2023-02-03T23:18:25.850Z,4.30
2023-02-03T23:23:48.343Z,2.27
2023-02-03T23:29:10.732Z,2.73
2023-02-03T23:34:52.681Z,2.30
2023-02-03T23:40:17.076Z,1.83
2023-02-03T23:45:40.121Z,2.30
2023-02-03T23:51:02.204Z,2.30
2023-02-03T23:56:24.399Z,2.80
